sensor_id;sensor_type;location;lat;lon;timestamp;P1;durP1;ratioP1;P2;durP2;ratioP2
39264;SDS011;42646;51.910;7.724;2022-08-14T00:01:57;7.40;;;5.95;;
39264;SDS011;42646;51.910;7.724;2022-08-14T00:04:28;7.07;;;6.30;;
39264;SDS011;42646;51.910;7.724;2022-08-14T00:07:08;7.05;;;6.13;;
39264;SDS011;42646;51.910;7.724;2022-08-14T00:09:39;7.55;;;6.20;;
39264;SDS011;42646;51.910;7.724;2022-08-14T00:12:26;7.40;;;6.28;;
39264;SDS011;42646;51.910;7.724;2022-08-14T00:15:06;7.15;;;6.25;;
39264;SDS011;42646;51.910;7.724;2022-08-14T00:17:36;8.13;;;6.50;;
39264;SDS011;42646;51.910;7.724;2022-08-14T00:20:19;7.47;;;6.38;;
39264;SDS011;42646;51.910;7.724;2022-08-14T00:22:56;7.93;;;6.30;;
39264;SDS011;42646;51.910;7.724;2022-08-14T00:25:39;7.80;;;6.32;;
39264;SDS011;42646;51.910;7.724;2022-08-14T00:28:09;7.43;;;6.30;;
39264;SDS011;42646;51.910;7.724;2022-08-14T00:30:45;7.00;;;6.30;;
39264;SDS011;42646;51.910;7.724;2022-08-14T00:33:13;7.35;;;6.55;;
39264;SDS011;42646;51.910;7.724;2022-08-14T00:35:42;8.38;;;6.57;;
39264;SDS011;42646;51.910;7.724;2022-08-14T00:38:30;7.28;;;6.55;;
39264;SDS011;42646;51.910;7.724;2022-08-14T00:41:00;7.15;;;6.22;;
39264;SDS011;42646;51.910;7.724;2022-08-14T00:43:29;6.82;;;5.68;;
39264;SDS011;42646;51.910;7.724;2022-08-14T00:46:02;7.32;;;6.28;;
39264;SDS011;42646;51.910;7.724;2022-08-14T00:48:33;8.18;;;6.43;;
39264;SDS011;42646;51.910;7.724;2022-08-14T00:51:04;7.78;;;6.53;;
39264;SDS011;42646;51.910;7.724;2022-08-14T00:53:33;6.85;;;5.70;;
39264;SDS011;42646;51.910;7.724;2022-08-14T00:56:04;7.77;;;6.40;;
39264;SDS011;42646;51.910;7.724;2022-08-14T00:58:34;8.50;;;6.55;;
39264;SDS011;42646;51.910;7.724;2022-08-14T01:01:12;8.82;;;7.10;;
39264;SDS011;42646;51.910;7.724;2022-08-14T01:03:42;8.27;;;6.80;;
39264;SDS011;42646;51.910;7.724;2022-08-14T01:06:18;8.85;;;6.45;;
39264;SDS011;42646;51.910;7.724;2022-08-14T01:08:46;9.35;;;6.95;;
39264;SDS011;42646;51.910;7.724;2022-08-14T01:11:25;7.43;;;6.53;;
39264;SDS011;42646;51.910;7.724;2022-08-14T01:14:01;7.57;;;6.32;;
39264;SDS011;42646;51.910;7.724;2022-08-14T01:16:51;7.47;;;6.43;;
39264;SDS011;42646;51.910;7.724;2022-08-14T01:19:21;7.60;;;6.70;;
39264;SDS011;42646;51.910;7.724;2022-08-14T01:22:16;7.95;;;6.53;;
39264;SDS011;42646;51.910;7.724;2022-08-14T01:24:44;7.50;;;6.57;;
39264;SDS011;42646;51.910;7.724;2022-08-14T01:27:13;8.27;;;6.82;;
39264;SDS011;42646;51.910;7.724;2022-08-14T01:29:43;7.55;;;6.57;;
39264;SDS011;42646;51.910;7.724;2022-08-14T01:32:29;8.20;;;6.88;;
39264;SDS011;42646;51.910;7.724;2022-08-14T01:35:08;8.43;;;6.78;;
39264;SDS011;42646;51.910;7.724;2022-08-14T01:37:57;7.82;;;6.88;;
39264;SDS011;42646;51.910;7.724;2022-08-14T01:40:26;10.20;;;6.78;;
39264;SDS011;42646;51.910;7.724;2022-08-14T01:43:07;9.35;;;7.30;;
39264;SDS011;42646;51.910;7.724;2022-08-14T01:45:47;8.27;;;6.72;;
39264;SDS011;42646;51.910;7.724;2022-08-14T01:48:32;7.00;;;6.25;;
39264;SDS011;42646;51.910;7.724;2022-08-14T01:51:03;7.38;;;6.55;;
39264;SDS011;42646;51.910;7.724;2022-08-14T01:56:21;8.77;;;6.90;;
39264;SDS011;42646;51.910;7.724;2022-08-14T01:59:05;7.65;;;6.85;;
39264;SDS011;42646;51.910;7.724;2022-08-14T02:01:40;9.25;;;7.07;;
39264;SDS011;42646;51.910;7.724;2022-08-14T02:04:17;8.88;;;7.22;;
39264;SDS011;42646;51.910;7.724;2022-08-14T02:07:06;8.00;;;7.03;;
39264;SDS011;42646;51.910;7.724;2022-08-14T02:09:42;8.90;;;7.55;;
39264;SDS011;42646;51.910;7.724;2022-08-14T02:12:21;7.88;;;7.07;;
39264;SDS011;42646;51.910;7.724;2022-08-14T02:14:54;8.00;;;6.85;;
39264;SDS011;42646;51.910;7.724;2022-08-14T02:17:27;8.80;;;7.03;;
39264;SDS011;42646;51.910;7.724;2022-08-14T02:19:56;9.10;;;7.53;;
39264;SDS011;42646;51.910;7.724;2022-08-14T02:22:24;8.38;;;7.47;;
39264;SDS011;42646;51.910;7.724;2022-08-14T02:25:00;8.20;;;7.22;;
39264;SDS011;42646;51.910;7.724;2022-08-14T02:27:28;8.70;;;7.03;;
39264;SDS011;42646;51.910;7.724;2022-08-14T02:30:16;7.38;;;6.53;;
39264;SDS011;42646;51.910;7.724;2022-08-14T02:32:43;9.30;;;7.30;;
39264;SDS011;42646;51.910;7.724;2022-08-14T02:35:11;8.63;;;7.20;;
39264;SDS011;42646;51.910;7.724;2022-08-14T02:37:43;8.38;;;7.22;;
39264;SDS011;42646;51.910;7.724;2022-08-14T02:40:15;8.57;;;7.20;;
39264;SDS011;42646;51.910;7.724;2022-08-14T02:42:44;7.93;;;6.68;;
39264;SDS011;42646;51.910;7.724;2022-08-14T02:45:22;7.68;;;6.82;;
39264;SDS011;42646;51.910;7.724;2022-08-14T02:47:59;8.05;;;6.93;;
39264;SDS011;42646;51.910;7.724;2022-08-14T02:50:27;8.75;;;7.40;;
39264;SDS011;42646;51.910;7.724;2022-08-14T02:52:59;8.35;;;7.28;;
39264;SDS011;42646;51.910;7.724;2022-08-14T02:55:30;8.45;;;7.07;;
39264;SDS011;42646;51.910;7.724;2022-08-14T02:57:58;9.27;;;7.85;;
39264;SDS011;42646;51.910;7.724;2022-08-14T03:00:31;8.07;;;7.20;;
39264;SDS011;42646;51.910;7.724;2022-08-14T03:03:05;7.97;;;7.18;;
39264;SDS011;42646;51.910;7.724;2022-08-14T03:05:34;8.45;;;7.07;;
39264;SDS011;42646;51.910;7.724;2022-08-14T03:08:08;9.93;;;8.13;;
39264;SDS011;42646;51.910;7.724;2022-08-14T03:10:43;8.05;;;6.97;;
39264;SDS011;42646;51.910;7.724;2022-08-14T03:13:14;7.95;;;7.07;;
39264;SDS011;42646;51.910;7.724;2022-08-14T03:18:21;8.93;;;7.28;;
39264;SDS011;42646;51.910;7.724;2022-08-14T03:20:58;8.63;;;7.38;;
39264;SDS011;42646;51.910;7.724;2022-08-14T03:23:28;8.73;;;7.32;;
39264;SDS011;42646;51.910;7.724;2022-08-14T03:26:05;8.77;;;7.50;;
39264;SDS011;42646;51.910;7.724;2022-08-14T03:28:33;8.98;;;7.95;;
39264;SDS011;42646;51.910;7.724;2022-08-14T03:31:05;8.27;;;7.38;;
39264;SDS011;42646;51.910;7.724;2022-08-14T03:33:38;8.35;;;7.03;;
39264;SDS011;42646;51.910;7.724;2022-08-14T03:36:09;8.48;;;7.60;;
39264;SDS011;42646;51.910;7.724;2022-08-14T03:39:00;8.48;;;7.60;;
39264;SDS011;42646;51.910;7.724;2022-08-14T03:41:48;9.18;;;7.53;;
39264;SDS011;42646;51.910;7.724;2022-08-14T03:44:18;9.93;;;8.30;;
39264;SDS011;42646;51.910;7.724;2022-08-14T03:47:06;7.78;;;6.97;;
39264;SDS011;42646;51.910;7.724;2022-08-14T03:49:37;8.30;;;7.28;;
39264;SDS011;42646;51.910;7.724;2022-08-14T03:52:08;8.50;;;7.60;;
39264;SDS011;42646;51.910;7.724;2022-08-14T03:54:57;10.13;;;7.55;;
39264;SDS011;42646;51.910;7.724;2022-08-14T03:57:26;9.13;;;7.32;;
39264;SDS011;42646;51.910;7.724;2022-08-14T04:00:03;9.77;;;8.30;;
39264;SDS011;42646;51.910;7.724;2022-08-14T04:02:54;10.30;;;7.28;;
39264;SDS011;42646;51.910;7.724;2022-08-14T04:05:23;8.43;;;7.43;;
39264;SDS011;42646;51.910;7.724;2022-08-14T04:07:51;8.00;;;7.20;;
39264;SDS011;42646;51.910;7.724;2022-08-14T04:10:39;7.30;;;6.45;;
39264;SDS011;42646;51.910;7.724;2022-08-14T04:13:08;9.35;;;7.78;;
39264;SDS011;42646;51.910;7.724;2022-08-14T04:15:36;8.68;;;7.78;;
39264;SDS011;42646;51.910;7.724;2022-08-14T04:18:24;9.63;;;7.18;;
39264;SDS011;42646;51.910;7.724;2022-08-14T04:20:52;8.02;;;7.22;;
39264;SDS011;42646;51.910;7.724;2022-08-14T04:23:21;9.68;;;7.20;;
39264;SDS011;42646;51.910;7.724;2022-08-14T04:25:58;8.32;;;6.90;;
39264;SDS011;42646;51.910;7.724;2022-08-14T04:28:28;9.30;;;6.95;;
39264;SDS011;42646;51.910;7.724;2022-08-14T04:31:17;7.93;;;7.03;;
39264;SDS011;42646;51.910;7.724;2022-08-14T04:34:06;8.68;;;7.78;;
39264;SDS011;42646;51.910;7.724;2022-08-14T04:36:49;8.32;;;7.35;;
39264;SDS011;42646;51.910;7.724;2022-08-14T04:39:33;9.45;;;7.25;;
39264;SDS011;42646;51.910;7.724;2022-08-14T04:42:23;9.15;;;7.35;;
39264;SDS011;42646;51.910;7.724;2022-08-14T04:45:19;7.53;;;6.65;;
39264;SDS011;42646;51.910;7.724;2022-08-14T04:47:48;9.20;;;7.00;;
39264;SDS011;42646;51.910;7.724;2022-08-14T04:50:35;8.35;;;7.18;;
39264;SDS011;42646;51.910;7.724;2022-08-14T04:53:11;8.35;;;7.00;;
39264;SDS011;42646;51.910;7.724;2022-08-14T04:55:48;8.30;;;7.25;;
39264;SDS011;42646;51.910;7.724;2022-08-14T04:58:18;8.30;;;7.38;;
39264;SDS011;42646;51.910;7.724;2022-08-14T05:01:01;9.18;;;6.93;;
39264;SDS011;42646;51.910;7.724;2022-08-14T05:03:38;7.50;;;6.70;;
39264;SDS011;42646;51.910;7.724;2022-08-14T05:06:06;9.10;;;6.70;;
39264;SDS011;42646;51.910;7.724;2022-08-14T05:08:56;8.63;;;6.82;;
39264;SDS011;42646;51.910;7.724;2022-08-14T05:11:25;7.63;;;6.53;;
39264;SDS011;42646;51.910;7.724;2022-08-14T05:13:55;7.60;;;6.25;;
39264;SDS011;42646;51.910;7.724;2022-08-14T05:16:44;8.55;;;6.70;;
39264;SDS011;42646;51.910;7.724;2022-08-14T05:19:14;8.85;;;6.43;;
39264;SDS011;42646;51.910;7.724;2022-08-14T05:21:50;9.90;;;6.55;;
39264;SDS011;42646;51.910;7.724;2022-08-14T05:24:40;8.23;;;7.15;;
39264;SDS011;42646;51.910;7.724;2022-08-14T05:27:09;7.25;;;6.55;;
39264;SDS011;42646;51.910;7.724;2022-08-14T05:29:36;7.63;;;6.80;;
39264;SDS011;42646;51.910;7.724;2022-08-14T05:32:06;8.73;;;7.05;;
39264;SDS011;42646;51.910;7.724;2022-08-14T05:34:33;7.78;;;6.97;;
39264;SDS011;42646;51.910;7.724;2022-08-14T05:37:02;7.72;;;6.65;;
39264;SDS011;42646;51.910;7.724;2022-08-14T05:39:32;7.70;;;6.90;;
39264;SDS011;42646;51.910;7.724;2022-08-14T05:41:59;8.48;;;7.05;;
39264;SDS011;42646;51.910;7.724;2022-08-14T05:44:47;7.50;;;6.68;;
39264;SDS011;42646;51.910;7.724;2022-08-14T05:49:48;7.55;;;6.75;;
39264;SDS011;42646;51.910;7.724;2022-08-14T05:52:17;9.38;;;7.40;;
39264;SDS011;42646;51.910;7.724;2022-08-14T05:55:05;8.13;;;6.80;;
39264;SDS011;42646;51.910;7.724;2022-08-14T05:57:44;8.60;;;6.93;;
39264;SDS011;42646;51.910;7.724;2022-08-14T06:00:13;9.02;;;6.85;;
39264;SDS011;42646;51.910;7.724;2022-08-14T06:02:56;8.30;;;7.25;;
39264;SDS011;42646;51.910;7.724;2022-08-14T06:05:26;7.72;;;6.93;;
39264;SDS011;42646;51.910;7.724;2022-08-14T06:07:55;8.60;;;7.20;;
39264;SDS011;42646;51.910;7.724;2022-08-14T06:10:23;7.70;;;6.90;;
39264;SDS011;42646;51.910;7.724;2022-08-14T06:12:54;8.73;;;7.40;;
39264;SDS011;42646;51.910;7.724;2022-08-14T06:15:23;8.65;;;7.13;;
39264;SDS011;42646;51.910;7.724;2022-08-14T06:17:57;8.88;;;7.95;;
39264;SDS011;42646;51.910;7.724;2022-08-14T06:20:27;10.07;;;7.67;;
39264;SDS011;42646;51.910;7.724;2022-08-14T06:22:56;7.88;;;6.20;;
39264;SDS011;42646;51.910;7.724;2022-08-14T06:25:24;9.30;;;6.75;;
39264;SDS011;42646;51.910;7.724;2022-08-14T06:27:53;7.35;;;6.28;;
39264;SDS011;42646;51.910;7.724;2022-08-14T06:30:27;6.80;;;6.10;;
39264;SDS011;42646;51.910;7.724;2022-08-14T06:33:14;7.70;;;5.95;;
39264;SDS011;42646;51.910;7.724;2022-08-14T06:35:44;6.45;;;5.68;;
39264;SDS011;42646;51.910;7.724;2022-08-14T06:38:13;6.00;;;5.40;;
39264;SDS011;42646;51.910;7.724;2022-08-14T06:40:43;7.07;;;6.38;;
39264;SDS011;42646;51.910;7.724;2022-08-14T06:43:12;6.20;;;5.60;;
39264;SDS011;42646;51.910;7.724;2022-08-14T06:45:43;6.05;;;5.45;;
39264;SDS011;42646;51.910;7.724;2022-08-14T06:48:23;6.80;;;6.10;;
39264;SDS011;42646;51.910;7.724;2022-08-14T06:50:53;8.18;;;5.93;;
39264;SDS011;42646;51.910;7.724;2022-08-14T06:53:23;6.80;;;5.22;;
39264;SDS011;42646;51.910;7.724;2022-08-14T06:55:53;6.20;;;5.60;;
39264;SDS011;42646;51.910;7.724;2022-08-14T06:58:26;7.38;;;6.55;;
39264;SDS011;42646;51.910;7.724;2022-08-14T07:00:56;6.90;;;6.20;;
39264;SDS011;42646;51.910;7.724;2022-08-14T07:03:54;6.68;;;5.90;;
39264;SDS011;42646;51.910;7.724;2022-08-14T07:06:50;6.50;;;5.55;;
39264;SDS011;42646;51.910;7.724;2022-08-14T07:09:24;6.15;;;5.50;;
39264;SDS011;42646;51.910;7.724;2022-08-14T07:11:53;6.72;;;5.57;;
39264;SDS011;42646;51.910;7.724;2022-08-14T07:14:23;6.38;;;5.35;;
39264;SDS011;42646;51.910;7.724;2022-08-14T07:16:51;6.15;;;5.55;;
39264;SDS011;42646;51.910;7.724;2022-08-14T07:19:20;6.68;;;5.88;;
39264;SDS011;42646;51.910;7.724;2022-08-14T07:21:48;6.20;;;5.60;;
39264;SDS011;42646;51.910;7.724;2022-08-14T07:24:16;6.60;;;5.90;;
39264;SDS011;42646;51.910;7.724;2022-08-14T07:26:46;6.13;;;5.38;;
39264;SDS011;42646;51.910;7.724;2022-08-14T07:29:14;6.40;;;5.70;;
39264;SDS011;42646;51.910;7.724;2022-08-14T07:31:49;6.75;;;6.00;;
39264;SDS011;42646;51.910;7.724;2022-08-14T07:34:18;6.10;;;5.50;;
39264;SDS011;42646;51.910;7.724;2022-08-14T07:37:03;6.65;;;5.93;;
39264;SDS011;42646;51.910;7.724;2022-08-14T07:39:32;6.90;;;6.07;;
39264;SDS011;42646;51.910;7.724;2022-08-14T07:42:00;6.43;;;5.82;;
39264;SDS011;42646;51.910;7.724;2022-08-14T07:44:28;6.82;;;5.97;;
39264;SDS011;42646;51.910;7.724;2022-08-14T07:47:11;6.57;;;5.97;;
39264;SDS011;42646;51.910;7.724;2022-08-14T07:49:42;5.90;;;5.30;;
39264;SDS011;42646;51.910;7.724;2022-08-14T07:52:23;6.18;;;5.57;;
39264;SDS011;42646;51.910;7.724;2022-08-14T07:55:07;6.22;;;5.63;;
39264;SDS011;42646;51.910;7.724;2022-08-14T07:57:35;6.22;;;5.63;;
39264;SDS011;42646;51.910;7.724;2022-08-14T08:00:06;7.80;;;6.07;;
39264;SDS011;42646;51.910;7.724;2022-08-14T08:02:56;6.40;;;5.80;;
39264;SDS011;42646;51.910;7.724;2022-08-14T08:05:26;8.18;;;6.50;;
39264;SDS011;42646;51.910;7.724;2022-08-14T08:07:55;7.30;;;6.57;;
39264;SDS011;42646;51.910;7.724;2022-08-14T08:10:24;7.00;;;6.30;;
39264;SDS011;42646;51.910;7.724;2022-08-14T08:13:19;7.70;;;6.90;;
39264;SDS011;42646;51.910;7.724;2022-08-14T08:15:50;8.13;;;6.50;;
39264;SDS011;42646;51.910;7.724;2022-08-14T08:18:19;9.65;;;6.90;;
39264;SDS011;42646;51.910;7.724;2022-08-14T08:20:55;8.50;;;7.32;;
39264;SDS011;42646;51.910;7.724;2022-08-14T08:23:27;7.78;;;6.97;;
39264;SDS011;42646;51.910;7.724;2022-08-14T08:26:09;7.82;;;6.97;;
39264;SDS011;42646;51.910;7.724;2022-08-14T08:28:37;8.82;;;7.93;;
39264;SDS011;42646;51.910;7.724;2022-08-14T08:31:09;11.55;;;8.00;;
39264;SDS011;42646;51.910;7.724;2022-08-14T08:33:39;8.07;;;7.25;;
39264;SDS011;42646;51.910;7.724;2022-08-14T08:36:12;8.43;;;7.22;;
39264;SDS011;42646;51.910;7.724;2022-08-14T08:38:46;8.02;;;7.20;;
39264;SDS011;42646;51.910;7.724;2022-08-14T08:41:39;8.15;;;7.38;;
39264;SDS011;42646;51.910;7.724;2022-08-14T08:44:08;8.52;;;7.53;;
39264;SDS011;42646;51.910;7.724;2022-08-14T08:46:56;8.20;;;7.40;;
39264;SDS011;42646;51.910;7.724;2022-08-14T08:49:33;7.88;;;7.18;;
39264;SDS011;42646;51.910;7.724;2022-08-14T08:52:08;8.55;;;7.75;;
39264;SDS011;42646;51.910;7.724;2022-08-14T08:54:55;7.55;;;6.75;;
39264;SDS011;42646;51.910;7.724;2022-08-14T08:57:24;8.52;;;7.63;;
39264;SDS011;42646;51.910;7.724;2022-08-14T08:59:51;8.50;;;7.13;;
39264;SDS011;42646;51.910;7.724;2022-08-14T09:02:23;7.40;;;6.70;;
39264;SDS011;42646;51.910;7.724;2022-08-14T09:04:59;8.43;;;7.30;;
39264;SDS011;42646;51.910;7.724;2022-08-14T09:07:29;7.57;;;6.85;;
39264;SDS011;42646;51.910;7.724;2022-08-14T09:09:59;7.68;;;6.97;;
39264;SDS011;42646;51.910;7.724;2022-08-14T09:12:29;7.50;;;6.80;;
39264;SDS011;42646;51.910;7.724;2022-08-14T09:14:59;7.55;;;6.60;;
39264;SDS011;42646;51.910;7.724;2022-08-14T09:17:28;6.45;;;5.80;;
39264;SDS011;42646;51.910;7.724;2022-08-14T09:19:56;7.10;;;6.38;;
39264;SDS011;42646;51.910;7.724;2022-08-14T09:22:29;7.28;;;6.57;;
39264;SDS011;42646;51.910;7.724;2022-08-14T09:25:04;7.13;;;6.43;;
39264;SDS011;42646;51.910;7.724;2022-08-14T09:27:33;6.82;;;6.15;;
39264;SDS011;42646;51.910;7.724;2022-08-14T09:30:03;6.80;;;6.10;;
39264;SDS011;42646;51.910;7.724;2022-08-14T09:33:00;6.50;;;5.90;;
39264;SDS011;42646;51.910;7.724;2022-08-14T09:35:42;6.38;;;5.78;;
39264;SDS011;42646;51.910;7.724;2022-08-14T09:38:23;7.13;;;5.88;;
39264;SDS011;42646;51.910;7.724;2022-08-14T09:41:03;6.15;;;5.55;;
39264;SDS011;42646;51.910;7.724;2022-08-14T09:43:41;6.55;;;5.95;;
39264;SDS011;42646;51.910;7.724;2022-08-14T09:46:14;9.45;;;5.80;;
39264;SDS011;42646;51.910;7.724;2022-08-14T09:48:56;6.28;;;5.47;;
39264;SDS011;42646;51.910;7.724;2022-08-14T09:51:24;6.20;;;5.60;;
39264;SDS011;42646;51.910;7.724;2022-08-14T09:53:59;6.78;;;6.07;;
39264;SDS011;42646;51.910;7.724;2022-08-14T09:56:49;6.78;;;6.18;;
39264;SDS011;42646;51.910;7.724;2022-08-14T09:59:25;6.05;;;5.45;;
39264;SDS011;42646;51.910;7.724;2022-08-14T10:01:58;6.20;;;5.60;;
39264;SDS011;42646;51.910;7.724;2022-08-14T10:04:29;6.55;;;5.90;;
39264;SDS011;42646;51.910;7.724;2022-08-14T10:07:01;6.30;;;5.70;;
39264;SDS011;42646;51.910;7.724;2022-08-14T10:09:29;6.95;;;5.70;;
39264;SDS011;42646;51.910;7.724;2022-08-14T10:12:02;6.35;;;5.75;;
39264;SDS011;42646;51.910;7.724;2022-08-14T10:14:44;6.20;;;5.60;;
39264;SDS011;42646;51.910;7.724;2022-08-14T10:17:20;7.15;;;5.78;;
39264;SDS011;42646;51.910;7.724;2022-08-14T10:19:52;6.35;;;5.75;;
39264;SDS011;42646;51.910;7.724;2022-08-14T10:22:24;6.43;;;5.83;;
39264;SDS011;42646;51.910;7.724;2022-08-14T10:25:15;6.43;;;5.82;;
39264;SDS011;42646;51.910;7.724;2022-08-14T10:27:56;6.70;;;5.80;;
39264;SDS011;42646;51.910;7.724;2022-08-14T10:30:31;6.57;;;5.88;;
39264;SDS011;42646;51.910;7.724;2022-08-14T10:33:02;5.90;;;5.30;;
39264;SDS011;42646;51.910;7.724;2022-08-14T10:35:39;7.90;;;5.80;;
39264;SDS011;42646;51.910;7.724;2022-08-14T10:38:24;5.93;;;5.43;;
39264;SDS011;42646;51.910;7.724;2022-08-14T10:40:52;6.43;;;5.82;;
39264;SDS011;42646;51.910;7.724;2022-08-14T10:43:28;6.20;;;5.60;;
39264;SDS011;42646;51.910;7.724;2022-08-14T10:45:57;6.45;;;5.85;;
39264;SDS011;42646;51.910;7.724;2022-08-14T10:48:57;6.75;;;6.10;;
39264;SDS011;42646;51.910;7.724;2022-08-14T10:51:29;5.90;;;5.40;;
39264;SDS011;42646;51.910;7.724;2022-08-14T10:54:05;7.10;;;5.30;;
39264;SDS011;42646;51.910;7.724;2022-08-14T10:56:55;6.35;;;5.75;;
39264;SDS011;42646;51.910;7.724;2022-08-14T10:59:25;5.75;;;5.25;;
39264;SDS011;42646;51.910;7.724;2022-08-14T11:02:02;7.20;;;5.72;;
39264;SDS011;42646;51.910;7.724;2022-08-14T11:04:30;7.15;;;5.70;;
39264;SDS011;42646;51.910;7.724;2022-08-14T11:06:58;6.35;;;5.75;;
39264;SDS011;42646;51.910;7.724;2022-08-14T11:09:26;6.10;;;5.50;;
39264;SDS011;42646;51.910;7.724;2022-08-14T11:11:57;7.22;;;5.80;;
39264;SDS011;42646;51.910;7.724;2022-08-14T11:14:52;6.38;;;5.50;;
39264;SDS011;42646;51.910;7.724;2022-08-14T11:17:25;6.95;;;5.63;;
39264;SDS011;42646;51.910;7.724;2022-08-14T11:19:58;6.22;;;5.38;;
39264;SDS011;42646;51.910;7.724;2022-08-14T11:22:28;7.03;;;5.72;;
39264;SDS011;42646;51.910;7.724;2022-08-14T11:25:18;7.10;;;5.60;;
39264;SDS011;42646;51.910;7.724;2022-08-14T11:27:49;6.43;;;5.82;;
39264;SDS011;42646;51.910;7.724;2022-08-14T11:30:20;6.03;;;5.43;;
39264;SDS011;42646;51.910;7.724;2022-08-14T11:33:09;6.07;;;5.30;;
39264;SDS011;42646;51.910;7.724;2022-08-14T11:35:37;6.57;;;5.88;;
39264;SDS011;42646;51.910;7.724;2022-08-14T11:38:13;6.68;;;6.07;;
39264;SDS011;42646;51.910;7.724;2022-08-14T11:40:43;6.47;;;5.88;;
39264;SDS011;42646;51.910;7.724;2022-08-14T11:43:12;7.00;;;6.30;;
39264;SDS011;42646;51.910;7.724;2022-08-14T11:45:44;6.75;;;5.78;;
39264;SDS011;42646;51.910;7.724;2022-08-14T11:48:14;6.57;;;5.90;;
39264;SDS011;42646;51.910;7.724;2022-08-14T11:51:10;6.97;;;6.35;;
39264;SDS011;42646;51.910;7.724;2022-08-14T11:53:39;6.35;;;5.75;;
39264;SDS011;42646;51.910;7.724;2022-08-14T11:56:11;6.55;;;5.95;;
39264;SDS011;42646;51.910;7.724;2022-08-14T11:58:38;6.30;;;5.70;;
39264;SDS011;42646;51.910;7.724;2022-08-14T12:01:09;6.30;;;5.70;;
39264;SDS011;42646;51.910;7.724;2022-08-14T12:03:37;6.15;;;5.55;;
39264;SDS011;42646;51.910;7.724;2022-08-14T12:06:18;6.67;;;6.07;;
39264;SDS011;42646;51.910;7.724;2022-08-14T12:09:04;8.40;;;6.25;;
39264;SDS011;42646;51.910;7.724;2022-08-14T12:11:39;8.23;;;6.07;;
39264;SDS011;42646;51.910;7.724;2022-08-14T12:14:13;6.53;;;5.75;;
39264;SDS011;42646;51.910;7.724;2022-08-14T12:17:01;6.35;;;5.72;;
39264;SDS011;42646;51.910;7.724;2022-08-14T12:19:44;6.22;;;5.63;;
39264;SDS011;42646;51.910;7.724;2022-08-14T12:22:17;6.20;;;5.65;;
39264;SDS011;42646;51.910;7.724;2022-08-14T12:24:55;6.85;;;5.57;;
39264;SDS011;42646;51.910;7.724;2022-08-14T12:27:33;7.30;;;6.00;;
39264;SDS011;42646;51.910;7.724;2022-08-14T12:30:07;7.30;;;5.57;;
39264;SDS011;42646;51.910;7.724;2022-08-14T12:32:39;7.32;;;5.97;;
39264;SDS011;42646;51.910;7.724;2022-08-14T12:35:09;6.00;;;5.25;;
39264;SDS011;42646;51.910;7.724;2022-08-14T12:37:37;6.78;;;5.85;;
39264;SDS011;42646;51.910;7.724;2022-08-14T12:40:10;6.40;;;5.78;;
39264;SDS011;42646;51.910;7.724;2022-08-14T12:42:46;6.20;;;5.60;;
39264;SDS011;42646;51.910;7.724;2022-08-14T12:45:28;5.97;;;5.13;;
39264;SDS011;42646;51.910;7.724;2022-08-14T12:48:00;5.90;;;5.30;;
39264;SDS011;42646;51.910;7.724;2022-08-14T12:50:49;6.13;;;5.57;;
39264;SDS011;42646;51.910;7.724;2022-08-14T12:53:18;6.88;;;5.68;;
39264;SDS011;42646;51.910;7.724;2022-08-14T12:55:56;6.00;;;5.40;;
39264;SDS011;42646;51.910;7.724;2022-08-14T12:58:48;6.40;;;5.68;;
39264;SDS011;42646;51.910;7.724;2022-08-14T13:01:19;7.10;;;5.78;;
39264;SDS011;42646;51.910;7.724;2022-08-14T13:03:50;6.43;;;5.82;;
39264;SDS011;42646;51.910;7.724;2022-08-14T13:06:30;7.32;;;5.93;;
39264;SDS011;42646;51.910;7.724;2022-08-14T13:09:02;6.55;;;5.80;;
39264;SDS011;42646;51.910;7.724;2022-08-14T13:11:37;6.75;;;5.80;;
39264;SDS011;42646;51.910;7.724;2022-08-14T13:14:10;6.28;;;5.68;;
39264;SDS011;42646;51.910;7.724;2022-08-14T13:16:43;6.43;;;5.80;;
39264;SDS011;42646;51.910;7.724;2022-08-14T13:19:17;7.40;;;5.80;;
39264;SDS011;42646;51.910;7.724;2022-08-14T13:21:52;7.03;;;6.20;;
39264;SDS011;42646;51.910;7.724;2022-08-14T13:24:31;6.15;;;5.55;;
39264;SDS011;42646;51.910;7.724;2022-08-14T13:27:00;6.30;;;5.70;;
39264;SDS011;42646;51.910;7.724;2022-08-14T13:29:31;6.03;;;5.43;;
39264;SDS011;42646;51.910;7.724;2022-08-14T13:32:06;5.97;;;5.38;;
39264;SDS011;42646;51.910;7.724;2022-08-14T13:34:37;6.55;;;5.95;;
39264;SDS011;42646;51.910;7.724;2022-08-14T13:37:10;6.38;;;5.78;;
39264;SDS011;42646;51.910;7.724;2022-08-14T13:42:22;6.53;;;5.93;;
39264;SDS011;42646;51.910;7.724;2022-08-14T13:44:56;6.35;;;5.75;;
39264;SDS011;42646;51.910;7.724;2022-08-14T13:47:27;7.13;;;5.88;;
39264;SDS011;42646;51.910;7.724;2022-08-14T13:50:00;6.38;;;5.78;;
39264;SDS011;42646;51.910;7.724;2022-08-14T13:52:32;6.05;;;5.45;;
39264;SDS011;42646;51.910;7.724;2022-08-14T13:55:25;6.65;;;5.40;;
39264;SDS011;42646;51.910;7.724;2022-08-14T13:57:55;5.82;;;5.30;;
39264;SDS011;42646;51.910;7.724;2022-08-14T14:00:30;7.65;;;5.68;;
39264;SDS011;42646;51.910;7.724;2022-08-14T14:03:02;8.02;;;5.50;;
39264;SDS011;42646;51.910;7.724;2022-08-14T14:05:36;6.00;;;5.40;;
39264;SDS011;42646;51.910;7.724;2022-08-14T14:08:19;6.50;;;5.72;;
39264;SDS011;42646;51.910;7.724;2022-08-14T14:11:08;6.68;;;5.55;;
39264;SDS011;42646;51.910;7.724;2022-08-14T14:13:36;7.15;;;5.88;;
39264;SDS011;42646;51.910;7.724;2022-08-14T14:16:10;6.20;;;5.60;;
39264;SDS011;42646;51.910;7.724;2022-08-14T14:18:48;6.28;;;5.68;;
39264;SDS011;42646;51.910;7.724;2022-08-14T14:21:19;6.40;;;5.80;;
39264;SDS011;42646;51.910;7.724;2022-08-14T14:26:17;6.10;;;5.50;;
39264;SDS011;42646;51.910;7.724;2022-08-14T14:28:51;6.72;;;5.32;;
39264;SDS011;42646;51.910;7.724;2022-08-14T14:31:22;5.80;;;5.20;;
39264;SDS011;42646;51.910;7.724;2022-08-14T14:33:57;5.90;;;5.40;;
39264;SDS011;42646;51.910;7.724;2022-08-14T14:39:15;5.97;;;5.38;;
39264;SDS011;42646;51.910;7.724;2022-08-14T14:41:49;6.57;;;5.07;;
39264;SDS011;42646;51.910;7.724;2022-08-14T14:44:22;5.82;;;5.22;;
39264;SDS011;42646;51.910;7.724;2022-08-14T14:46:53;6.28;;;5.68;;
39264;SDS011;42646;51.910;7.724;2022-08-14T14:49:23;6.43;;;5.70;;
39264;SDS011;42646;51.910;7.724;2022-08-14T14:52:13;6.22;;;5.63;;
39264;SDS011;42646;51.910;7.724;2022-08-14T14:54:48;6.03;;;5.43;;
39264;SDS011;42646;51.910;7.724;2022-08-14T14:57:17;6.97;;;5.30;;
39264;SDS011;42646;51.910;7.724;2022-08-14T14:59:45;6.53;;;5.78;;
39264;SDS011;42646;51.910;7.724;2022-08-14T15:05:02;5.32;;;4.82;;
39264;SDS011;42646;51.910;7.724;2022-08-14T15:07:32;6.07;;;5.45;;
39264;SDS011;42646;51.910;7.724;2022-08-14T15:10:00;5.35;;;4.85;;
39264;SDS011;42646;51.910;7.724;2022-08-14T15:12:29;5.53;;;5.00;;
39264;SDS011;42646;51.910;7.724;2022-08-14T15:15:16;6.00;;;5.40;;
39264;SDS011;42646;51.910;7.724;2022-08-14T15:17:45;5.70;;;5.20;;
39264;SDS011;42646;51.910;7.724;2022-08-14T15:20:20;5.82;;;5.30;;
39264;SDS011;42646;51.910;7.724;2022-08-14T15:22:58;5.60;;;5.10;;
39264;SDS011;42646;51.910;7.724;2022-08-14T15:25:38;5.90;;;5.30;;
39264;SDS011;42646;51.910;7.724;2022-08-14T15:28:05;6.15;;;5.55;;
39264;SDS011;42646;51.910;7.724;2022-08-14T15:30:46;5.70;;;5.20;;
39264;SDS011;42646;51.910;7.724;2022-08-14T15:33:23;6.05;;;5.45;;
39264;SDS011;42646;51.910;7.724;2022-08-14T15:38:56;7.32;;;5.32;;
39264;SDS011;42646;51.910;7.724;2022-08-14T15:41:25;6.03;;;5.40;;
39264;SDS011;42646;51.910;7.724;2022-08-14T15:44:07;5.65;;;5.15;;
39264;SDS011;42646;51.910;7.724;2022-08-14T15:46:52;5.55;;;5.05;;
39264;SDS011;42646;51.910;7.724;2022-08-14T15:49:20;5.80;;;5.20;;
39264;SDS011;42646;51.910;7.724;2022-08-14T15:51:49;6.03;;;5.53;;
39264;SDS011;42646;51.910;7.724;2022-08-14T15:54:18;5.70;;;5.20;;
39264;SDS011;42646;51.910;7.724;2022-08-14T15:56:54;5.40;;;4.90;;